Time;durP1;ratioP1;P1;durP2;ratioP2;P2;SDS_P1;SDS_P2;PMS_P1;PMS_P2;Temp;Humidity;BMP_temperature;BMP_pressure;BME280_temperature;BME280_humidity;BME280_pressure;Samples;Min_cycle;Max_cycle;Signal;HPM_P1;HPM_P2
2023/10/12 00:00:41;;;;;;;;;;;14.60;99.90;;;;;;5116890;28;19931;-42
2023/10/12 00:03:12;;;;;;;;;;;14.60;99.90;;;;;;5116591;28;20382;-42
2023/10/12 00:05:39;;;;;;;;;;;14.60;99.90;;;;;;5116896;28;19963;-42
2023/10/12 00:08:09;;;;;;;;;;;14.60;99.90;;;;;;5116766;28;19924;-42
2023/10/12 00:10:41;;;;;;;;;;;14.60;99.90;;;;;;5116564;28;19953;-42
2023/10/12 00:13:11;;;;;;;;;;;14.60;99.90;;;;;;5115734;28;19976;-42
2023/10/12 00:15:41;;;;;;;;;;;14.60;99.90;;;;;;5115697;28;19962;-42
2023/10/12 00:18:10;;;;;;;;;;;14.60;99.90;;;;;;5115987;28;19927;-42
2023/10/12 00:20:37;;;;;;;;;;;14.60;99.90;;;;;;5116468;28;19923;-42
2023/10/12 00:23:10;;;;;;;;;;;14.60;99.90;;;;;;5115467;28;19924;-42
2023/10/12 00:25:45;;;;;;;;;;;14.60;99.90;;;;;;5116559;28;19923;-42
2023/10/12 00:28:13;;;;;;;;;;;14.60;99.90;;;;;;5116042;28;19924;-41
2023/10/12 00:30:41;;;;;;;;;;;14.50;99.90;;;;;;5116398;28;19924;-41
2023/10/12 00:33:08;;;;;;;;;;;14.50;99.90;;;;;;5115313;28;20350;-42
2023/10/12 00:35:37;;;;;;;;;;;14.50;99.90;;;;;;5116150;28;20018;-42
2023/10/12 00:38:18;;;;;;;;;;;14.50;99.90;;;;;;5115927;28;19924;-41
2023/10/12 00:40:57;;;;;;;;;;;14.50;99.90;;;;;;5116269;28;19976;-42
2023/10/12 00:43:32;;;;;;;;;;;14.50;99.90;;;;;;5115992;28;19984;-41
2023/10/12 00:45:58;;;;;;;;;;;14.40;99.90;;;;;;5116049;28;20374;-42
2023/10/12 00:48:29;;;;;;;;;;;14.40;99.90;;;;;;5116010;28;19928;-41
2023/10/12 00:50:56;;;;;;;;;;;14.40;99.90;;;;;;5115356;28;20015;-41
2023/10/12 00:53:23;;;;;;;;;;;14.40;99.90;;;;;;5115822;27;19924;-41
2023/10/12 00:55:49;;;;;;;;;;;14.40;99.90;;;;;;5115708;28;19931;-41
2023/10/12 00:58:17;;;;;;;;;;;14.40;99.90;;;;;;5115738;28;19932;-41
2023/10/12 01:00:46;;;;;;;;;;;14.40;99.90;;;;;;5115594;28;19924;-41
2023/10/12 01:03:30;;;;;;;;;;;14.40;99.90;;;;;;5115569;28;20367;-41
2023/10/12 01:08:35;;;;;;;;;;;14.40;99.90;;;;;;5115431;28;20027;-41
2023/10/12 01:11:07;;;;;;;;;;;14.40;99.90;;;;;;5115519;27;19981;-42
2023/10/12 01:13:33;;;;;;;;;;;14.40;99.90;;;;;;5115563;28;20018;-41
2023/10/12 01:16:05;;;;;;;;;;;14.40;99.90;;;;;;5115429;28;19975;-41
2023/10/12 01:18:31;;;;;;;;;;;14.40;99.90;;;;;;5115784;28;20027;-41
2023/10/12 01:20:58;;;;;;;;;;;14.30;99.90;;;;;;5115194;28;19978;-41
2023/10/12 01:23:23;;;;;;;;;;;14.30;99.90;;;;;;5115083;28;19924;-41
2023/10/12 01:25:49;;;;;;;;;;;14.30;99.90;;;;;;5115036;28;20298;-41
2023/10/12 01:28:15;;;;;;;;;;;14.30;99.90;;;;;;5115224;28;20302;-41
2023/10/12 01:30:43;;;;;;;;;;;14.30;99.90;;;;;;5115209;28;19924;-41
2023/10/12 01:33:09;;;;;;;;;;;14.30;99.90;;;;;;5115132;28;19924;-41
2023/10/12 01:35:40;;;;;;;;;;;14.20;99.90;;;;;;5114964;28;19935;-41
2023/10/12 01:38:08;;;;;;;;;;;14.20;99.90;;;;;;5114941;28;19923;-42
2023/10/12 01:43:17;;;;;;;;;;;14.20;99.90;;;;;;5114923;28;20295;-41
2023/10/12 01:45:43;;;;;;;;;;;14.20;99.90;;;;;;5114063;28;19924;-41
2023/10/12 01:48:12;;;;;;;;;;;14.20;99.90;;;;;;5114923;28;19924;-41
2023/10/12 01:50:38;;;;;;;;;;;14.20;99.90;;;;;;5114919;28;20318;-41
2023/10/12 01:53:22;;;;;;;;;;;14.10;99.90;;;;;;5114608;28;20313;-41
2023/10/12 01:55:48;;;;;;;;;;;14.10;99.90;;;;;;5114681;28;19924;-41
2023/10/12 01:58:18;;;;;;;;;;;14.10;99.90;;;;;;5114840;28;19931;-41
2023/10/12 02:00:52;;;;;;;;;;;14.10;99.90;;;;;;5114729;28;19945;-41
2023/10/12 02:03:26;;;;;;;;;;;14.00;99.90;;;;;;5114438;28;19983;-41
2023/10/12 02:06:13;;;;;;;;;;;14.00;99.90;;;;;;5114755;28;19923;-41
2023/10/12 02:08:39;;;;;;;;;;;14.00;99.90;;;;;;5113448;28;20386;-41
2023/10/12 02:11:07;;;;;;;;;;;14.00;99.90;;;;;;5114543;28;20049;-41
2023/10/12 02:13:34;;;;;;;;;;;14.00;99.90;;;;;;5114582;28;20010;-42
2023/10/12 02:16:00;;;;;;;;;;;14.00;99.90;;;;;;5114996;28;20271;-41
2023/10/12 02:18:27;;;;;;;;;;;14.00;99.90;;;;;;5114570;28;19924;-41
2023/10/12 02:21:26;;;;;;;;;;;13.90;99.90;;;;;;5114516;28;19932;-41
2023/10/12 02:29:03;;;;;;;;;;;13.80;99.90;;;;;;5114839;28;19924;-41
2023/10/12 02:31:28;;;;;;;;;;;13.80;99.90;;;;;;5114445;28;19931;-41
2023/10/12 02:33:54;;;;;;;;;;;13.80;99.90;;;;;;5114254;28;19927;-41
2023/10/12 02:36:20;;;;;;;;;;;13.80;99.90;;;;;;5114229;28;19924;-41
2023/10/12 02:38:45;;;;;;;;;;;13.80;99.90;;;;;;5112986;28;20330;-41
2023/10/12 02:41:14;;;;;;;;;;;13.70;99.90;;;;;;5114329;28;19977;-41
2023/10/12 02:43:42;;;;;;;;;;;13.70;99.90;;;;;;5114295;28;19923;-41
2023/10/12 02:46:21;;;;;;;;;;;13.70;99.90;;;;;;5114217;28;19924;-41
2023/10/12 02:48:47;;;;;;;;;;;13.70;99.90;;;;;;5114258;28;19971;-41
2023/10/12 02:51:16;;;;;;;;;;;13.70;99.90;;;;;;5114547;28;20383;-41
2023/10/12 02:53:42;;;;;;;;;;;13.70;99.90;;;;;;5117301;28;19924;-41
2023/10/12 02:56:07;;;;;;;;;;;13.70;99.90;;;;;;5117982;28;19931;-41
2023/10/12 02:58:33;;;;;;;;;;;13.60;99.90;;;;;;5118464;28;19924;-41
2023/10/12 03:01:12;;;;;;;;;;;13.70;99.90;;;;;;5118034;28;20415;-41
2023/10/12 03:03:39;;;;;;;;;;;13.70;99.90;;;;;;5118042;28;19949;-42
2023/10/12 03:06:08;;;;;;;;;;;13.60;99.90;;;;;;5118153;28;19932;-41
2023/10/12 03:08:46;;;;;;;;;;;13.70;99.90;;;;;;5117577;28;20351;-41
2023/10/12 03:11:19;;;;;;;;;;;13.60;99.90;;;;;;5118229;28;19924;-41
2023/10/12 03:13:56;;;;;;;;;;;13.60;99.90;;;;;;5117913;28;19935;-41
2023/10/12 03:16:22;;;;;;;;;;;13.60;99.90;;;;;;5117850;28;20016;-41
2023/10/12 03:19:00;;;;;;;;;;;13.50;99.90;;;;;;5117440;27;19993;-41
2023/10/12 03:21:33;;;;;;;;;;;13.50;99.90;;;;;;5117727;28;19931;-41
2023/10/12 03:24:02;;;;;;;;;;;13.50;99.90;;;;;;5117600;28;19930;-41
2023/10/12 03:26:28;;;;;;;;;;;13.50;99.90;;;;;;5117450;28;20297;-41
2023/10/12 03:29:18;;;;;;;;;;;13.50;99.90;;;;;;5116014;28;20010;-41
2023/10/12 03:34:30;;;;;;;;;;;13.40;99.90;;;;;;5117508;28;19928;-41
2023/10/12 03:36:58;;;;;;;;;;;13.40;99.90;;;;;;5117357;28;19928;-41
2023/10/12 03:42:10;;;;;;;;;;;13.40;99.90;;;;;;5117328;28;19923;-42
2023/10/12 03:52:20;;;;;;;;;;;13.30;99.90;;;;;;5117651;28;19923;-42
2023/10/12 03:55:09;;;;;;;;;;;13.20;99.90;;;;;;5116146;28;19930;-41
2023/10/12 04:02:54;;;;;;;;;;;13.20;99.90;;;;;;5116783;28;19924;-42
2023/10/12 04:08:00;;;;;;;;;;;13.20;99.90;;;;;;5116849;28;20014;-41
2023/10/12 04:14:20;;;;;;;;;;;13.20;99.90;;;;;;5116856;28;19924;-42
2023/10/12 04:19:02;;;;;;;;;;;13.20;99.90;;;;;;5116431;28;20371;-43
2023/10/12 04:21:27;;;;;;;;;;;13.20;99.90;;;;;;5116623;28;19924;-42
2023/10/12 04:29:00;;;;;;;;;;;13.10;99.90;;;;;;5116259;28;20286;-42
2023/10/12 04:31:40;;;;;;;;;;;13.10;99.90;;;;;;5116264;27;19992;-42
2023/10/12 04:34:06;;;;;;;;;;;13.10;99.90;;;;;;5116266;28;20028;-42
2023/10/12 04:39:15;;;;;;;;;;;13.10;99.90;;;;;;5116022;28;20019;-42
2023/10/12 04:46:51;;;;;;;;;;;13.00;99.90;;;;;;5115832;28;19967;-42
2023/10/12 04:51:49;;;;;;;;;;;12.90;99.90;;;;;;5115643;27;20335;-42
2023/10/12 04:54:23;;;;;;;;;;;12.90;99.90;;;;;;5115647;28;19934;-42
2023/10/12 04:56:57;;;;;;;;;;;12.90;99.90;;;;;;5114879;28;19923;-42
2023/10/12 04:59:42;;;;;;;;;;;12.90;99.90;;;;;;5116002;28;20015;-43
2023/10/12 05:09:37;;;;;;;;;;;12.90;99.90;;;;;;5115776;28;19924;-42
2023/10/12 05:12:03;;;;;;;;;;;12.80;99.90;;;;;;5115370;28;19976;-42
2023/10/12 05:14:30;;;;;;;;;;;12.80;99.90;;;;;;5115396;28;19928;-42
2023/10/12 05:16:55;;;;;;;;;;;12.80;99.90;;;;;;5115396;28;19924;-42
2023/10/12 05:19:21;;;;;;;;;;;12.80;99.90;;;;;;5115218;28;19923;-42
2023/10/12 05:21:46;;;;;;;;;;;12.80;99.90;;;;;;5115330;28;19931;-42
2023/10/12 05:24:12;;;;;;;;;;;12.70;99.90;;;;;;5114231;28;19971;-42
2023/10/12 05:26:38;;;;;;;;;;;12.70;99.90;;;;;;5115314;28;20260;-42
2023/10/12 05:29:34;;;;;;;;;;;12.70;99.90;;;;;;5115066;28;19928;-42
2023/10/12 05:32:06;;;;;;;;;;;12.70;99.90;;;;;;5115119;28;19931;-41
2023/10/12 05:37:16;;;;;;;;;;;12.60;99.90;;;;;;5115094;28;20371;-42
2023/10/12 05:39:50;;;;;;;;;;;12.60;99.90;;;;;;5115383;28;19946;-42
2023/10/12 05:42:20;;;;;;;;;;;12.60;99.90;;;;;;5114877;28;20283;-42
2023/10/12 05:44:48;;;;;;;;;;;12.50;99.90;;;;;;5114900;28;19928;-42
2023/10/12 05:47:14;;;;;;;;;;;12.50;99.90;;;;;;5114911;28;19988;-42
2023/10/12 05:49:40;;;;;;;;;;;12.40;99.90;;;;;;5115241;28;19928;-42
2023/10/12 05:52:07;;;;;;;;;;;12.40;99.90;;;;;;5114955;28;19998;-42
2023/10/12 05:54:34;;;;;;;;;;;12.40;99.90;;;;;;5114042;28;19924;-42
2023/10/12 05:57:05;;;;;;;;;;;12.30;99.90;;;;;;5114535;28;19927;-42
2023/10/12 05:59:31;;;;;;;;;;;12.30;99.90;;;;;;5114972;28;20006;-42
2023/10/12 06:02:01;;;;;;;;;;;12.30;99.90;;;;;;5114745;28;20386;-41
2023/10/12 06:04:27;;;;;;;;;;;12.20;99.90;;;;;;5114654;28;19931;-42
2023/10/12 06:06:52;;;;;;;;;;;12.20;99.90;;;;;;5114628;28;20279;-42
2023/10/12 06:09:20;;;;;;;;;;;12.20;99.90;;;;;;5114348;28;19924;-42
2023/10/12 06:11:47;;;;;;;;;;;12.20;99.90;;;;;;5114342;28;19980;-42
2023/10/12 06:14:19;;;;;;;;;;;12.20;99.90;;;;;;5114003;28;19928;-42
2023/10/12 06:16:46;;;;;;;;;;;12.20;99.90;;;;;;5114556;28;20375;-42
2023/10/12 06:19:22;;;;;;;;;;;12.20;99.90;;;;;;5114588;28;19924;-42
2023/10/12 06:21:50;;;;;;;;;;;12.10;99.90;;;;;;5114447;28;19924;-45
2023/10/12 06:24:35;;;;;;;;;;;12.20;99.90;;;;;;5114111;28;19923;-42
2023/10/12 06:29:45;;;;;;;;;;;12.20;99.90;;;;;;5118922;27;19928;-42
2023/10/12 06:32:17;;;;;;;;;;;12.20;99.90;;;;;;5118438;28;20014;-42
2023/10/12 06:34:43;;;;;;;;;;;12.20;99.90;;;;;;5118635;28;19949;-42
2023/10/12 06:37:30;;;;;;;;;;;12.20;99.90;;;;;;5117615;28;19923;-42
2023/10/12 06:42:38;;;;;;;;;;;12.20;99.90;;;;;;5118305;28;19984;-42
2023/10/12 06:45:07;;;;;;;;;;;12.10;99.90;;;;;;5116990;28;19927;-42
2023/10/12 06:47:41;;;;;;;;;;;12.10;99.90;;;;;;5118463;27;19924;-42
2023/10/12 06:50:14;;;;;;;;;;;12.10;99.90;;;;;;5118859;28;19923;-41
2023/10/12 06:52:41;;;;;;;;;;;12.10;99.90;;;;;;5118068;27;19924;-42
2023/10/12 06:55:08;;;;;;;;;;;12.10;99.90;;;;;;5117943;27;19930;-42
2023/10/12 06:57:42;;;;;;;;;;;12.10;99.90;;;;;;5117880;28;19923;-41
2023/10/12 07:02:34;;;;;;;;;;;12.10;99.90;;;;;;5118072;28;19924;-41
2023/10/12 07:05:02;;;;;;;;;;;12.10;99.90;;;;;;5117934;28;20355;-42
2023/10/12 07:07:51;;;;;;;;;;;12.20;99.90;;;;;;5117838;28;20006;-42
2023/10/12 07:10:50;;;;;;;;;;;12.20;99.90;;;;;;5117523;28;19975;-42
2023/10/12 07:13:03;;;;;;;;;;;12.20;99.90;;;;;;5117263;28;19931;-42
2023/10/12 07:15:40;;;;;;;;;;;12.20;99.90;;;;;;5117863;28;19924;-42
2023/10/12 07:18:07;;;;;;;;;;;12.20;99.90;;;;;;5117578;28;19985;-41
2023/10/12 07:23:28;;;;;;;;;;;12.30;99.90;;;;;;5117446;27;19924;-41
2023/10/12 07:25:59;;;;;;;;;;;12.30;99.90;;;;;;5117503;28;20465;-43
2023/10/12 07:28:33;;;;;;;;;;;12.40;99.90;;;;;;5117483;28;20367;-42
2023/10/12 07:33:59;;;;;;;;;;;12.50;99.90;;;;;;5117421;28;19924;-41
2023/10/12 07:36:46;;;;;;;;;;;12.50;99.90;;;;;;5117273;28;20410;-41
2023/10/12 07:39:17;;;;;;;;;;;12.60;99.90;;;;;;5115739;28;19937;-41
2023/10/12 07:41:54;;;;;;;;;;;12.70;99.90;;;;;;5117768;28;19996;-41
2023/10/12 07:44:23;;;;;;;;;;;12.70;99.90;;;;;;5117159;28;19931;-42
2023/10/12 07:46:48;;;;;;;;;;;12.70;99.90;;;;;;5117434;28;19977;-42
2023/10/12 07:50:25;;;;;;;;;;;12.80;99.90;;;;;;5116105;28;20327;-41
2023/10/12 07:54:47;;;;;;;;;;;12.90;99.90;;;;;;5117227;28;19982;-41
2023/10/12 07:57:15;;;;;;;;;;;13.00;99.90;;;;;;5117348;28;19935;-41
2023/10/12 07:59:58;;;;;;;;;;;13.00;99.90;;;;;;5116992;28;19975;-41
2023/10/12 08:13:14;;;;;;;;;;;13.10;99.90;;;;;;5116641;28;20018;-40
2023/10/12 08:15:49;;;;;;;;;;;13.10;99.90;;;;;;5116677;28;19924;-41
2023/10/12 08:19:08;;;;;;;;;;;13.10;99.90;;;;;;5116743;28;20046;-41
2023/10/12 08:21:01;;;;;;;;;;;13.10;99.90;;;;;;5116071;28;20375;-41
2023/10/12 08:23:27;;;;;;;;;;;13.20;99.90;;;;;;5116718;28;19931;-41
2023/10/12 08:25:57;;;;;;;;;;;13.20;99.90;;;;;;5115496;28;19924;-41
2023/10/12 08:28:25;;;;;;;;;;;13.20;99.90;;;;;;5116495;28;19924;-41
2023/10/12 08:31:00;;;;;;;;;;;13.20;99.90;;;;;;5116219;28;19924;-40
2023/10/12 08:36:23;;;;;;;;;;;13.30;99.90;;;;;;5116119;28;19924;-41
2023/10/12 08:38:54;;;;;;;;;;;13.30;99.90;;;;;;5116382;28;19923;-41
2023/10/12 08:41:21;;;;;;;;;;;13.40;99.90;;;;;;5116171;27;19967;-41
2023/10/12 08:43:52;;;;;;;;;;;13.50;99.90;;;;;;5115854;28;19968;-41
2023/10/12 08:49:34;;;;;;;;;;;13.50;99.90;;;;;;5115736;28;19977;-40
2023/10/12 08:52:05;;;;;;;;;;;13.50;99.90;;;;;;5115790;28;20010;-41
2023/10/12 08:54:35;;;;;;;;;;;13.60;99.90;;;;;;5115896;28;19966;-41
2023/10/12 08:57:02;;;;;;;;;;;13.60;99.90;;;;;;5115760;28;19968;-41
2023/10/12 08:59:29;;;;;;;;;;;13.60;99.90;;;;;;5115698;28;19969;-41
2023/10/12 09:02:03;;;;;;;;;;;13.60;99.90;;;;;;5115542;28;19927;-41
2023/10/12 09:04:29;;;;;;;;;;;13.60;99.90;;;;;;5115661;28;19979;-41
2023/10/12 09:06:56;;;;;;;;;;;13.60;99.90;;;;;;5115260;28;19942;-40
2023/10/12 09:12:11;;;;;;;;;;;13.60;99.90;;;;;;5115418;28;19924;-41
2023/10/12 09:14:43;;;;;;;;;;;13.60;99.90;;;;;;5115606;28;20323;-41
2023/10/12 09:17:16;;;;;;;;;;;13.60;99.90;;;;;;5115107;28;20026;-41
2023/10/12 09:19:46;;;;;;;;;;;13.70;99.90;;;;;;5115414;28;19974;-41
2023/10/12 09:22:12;;;;;;;;;;;13.70;99.90;;;;;;5115836;28;19966;-41
2023/10/12 09:24:38;;;;;;;;;;;13.70;99.90;;;;;;5115082;28;19971;-41
2023/10/12 09:27:14;;;;;;;;;;;13.70;99.90;;;;;;5115038;28;19946;-41
2023/10/12 09:29:57;;;;;;;;;;;13.80;99.90;;;;;;5115170;28;19924;-41
2023/10/12 09:32:24;;;;;;;;;;;13.80;99.90;;;;;;5115156;28;19927;-40
2023/10/12 09:37:21;;;;;;;;;;;13.80;99.90;;;;;;5114944;28;20301;-40
2023/10/12 09:39:47;;;;;;;;;;;13.80;99.90;;;;;;5114884;28;19931;-40
2023/10/12 09:42:39;;;;;;;;;;;13.90;99.90;;;;;;5114763;28;19971;-41
2023/10/12 09:45:08;;;;;;;;;;;13.90;99.90;;;;;;5111448;28;20350;-40
2023/10/12 09:47:44;;;;;;;;;;;14.00;99.90;;;;;;5114807;28;19982;-40
2023/10/12 09:50:15;;;;;;;;;;;14.00;99.90;;;;;;5114920;28;19923;-40
2023/10/12 09:52:47;;;;;;;;;;;14.00;99.90;;;;;;5114457;28;19930;-41
2023/10/12 09:55:23;;;;;;;;;;;14.00;99.90;;;;;;5113799;28;19927;-41
2023/10/12 09:57:50;;;;;;;;;;;14.00;99.90;;;;;;5114728;28;20006;-41
2023/10/12 10:01:07;;;;;;;;;;;14.10;99.90;;;;;;5114450;28;19947;-41
2023/10/12 10:03:04;;;;;;;;;;;14.10;99.90;;;;;;5106454;28;19931;-41
2023/10/12 10:08:20;;;;;;;;;;;14.20;99.90;;;;;;5113557;28;20033;-41
2023/10/12 10:10:46;;;;;;;;;;;14.20;99.90;;;;;;5114276;28;20267;-41
2023/10/12 10:13:37;;;;;;;;;;;14.20;99.90;;;;;;5114452;28;19924;-41
2023/10/12 10:16:08;;;;;;;;;;;14.20;99.90;;;;;;5105606;28;19924;-41
2023/10/12 10:18:42;;;;;;;;;;;14.20;99.90;;;;;;5114707;28;19923;-41
2023/10/12 10:21:08;;;;;;;;;;;14.30;99.90;;;;;;5114581;28;19924;-41
2023/10/12 10:23:37;;;;;;;;;;;14.30;99.90;;;;;;5096446;28;19950;-41
2023/10/12 10:26:30;;;;;;;;;;;14.30;99.90;;;;;;5114168;28;20290;-41
2023/10/12 10:29:05;;;;;;;;;;;14.40;99.90;;;;;;5114432;28;19935;-41
2023/10/12 10:31:43;;;;;;;;;;;14.40;99.90;;;;;;5113446;28;19924;-41
2023/10/12 10:34:11;;;;;;;;;;;14.50;99.90;;;;;;5114364;28;19982;-41
2023/10/12 10:36:37;;;;;;;;;;;14.50;99.90;;;;;;5114327;28;19924;-41
2023/10/12 10:41:54;;;;;;;;;;;14.60;99.90;;;;;;5114571;28;19976;-41
2023/10/12 10:44:26;;;;;;;;;;;14.70;99.90;;;;;;5114350;28;19977;-41
2023/10/12 10:47:12;;;;;;;;;;;14.90;99.90;;;;;;5114310;28;19924;-41
2023/10/12 10:49:37;;;;;;;;;;;15.00;99.90;;;;;;5114262;28;20359;-42
2023/10/12 10:54:33;;;;;;;;;;;15.00;99.90;;;;;;5114278;28;19924;-41
2023/10/12 10:57:01;;;;;;;;;;;15.10;99.90;;;;;;5114241;28;20282;-41
2023/10/12 10:59:27;;;;;;;;;;;15.20;99.90;;;;;;5113977;28;19923;-41
2023/10/12 11:01:52;;;;;;;;;;;15.30;99.90;;;;;;5114207;28;20393;-41
2023/10/12 11:07:04;;;;;;;;;;;15.40;99.90;;;;;;5114296;28;19923;-41
2023/10/12 11:12:22;;;;;;;;;;;15.60;99.90;;;;;;5113896;28;21358;-42
2023/10/12 11:15:01;;;;;;;;;;;15.60;99.90;;;;;;5117871;28;20018;-43
2023/10/12 11:17:35;;;;;;;;;;;15.70;99.90;;;;;;5117971;28;19975;-42
2023/10/12 11:20:07;;;;;;;;;;;15.70;99.90;;;;;;5117671;28;19969;-42
2023/10/12 11:22:33;;;;;;;;;;;15.70;99.90;;;;;;5117680;28;19938;-42
2023/10/12 11:25:01;;;;;;;;;;;15.70;99.90;;;;;;5116423;28;19924;-42
2023/10/12 11:27:31;;;;;;;;;;;15.70;99.90;;;;;;5117936;27;19931;-42
2023/10/12 11:30:00;;;;;;;;;;;15.70;99.90;;;;;;5117431;28;20336;-42
2023/10/12 11:32:28;;;;;;;;;;;15.80;99.90;;;;;;5117302;28;20374;-41
2023/10/12 11:34:59;;;;;;;;;;;15.70;99.90;;;;;;5117201;28;20371;-42
2023/10/12 11:37:27;;;;;;;;;;;15.70;99.90;;;;;;5116449;28;19924;-42
2023/10/12 11:39:54;;;;;;;;;;;15.60;99.90;;;;;;5117646;28;19924;-42
2023/10/12 11:42:20;;;;;;;;;;;15.50;99.90;;;;;;5117599;28;19923;-42
2023/10/12 11:44:46;;;;;;;;;;;15.50;99.90;;;;;;5116840;28;19931;-41
2023/10/12 11:47:38;;;;;;;;;;;15.40;99.90;;;;;;5117162;28;20371;-42
2023/10/12 11:50:09;;;;;;;;;;;15.30;99.90;;;;;;5117299;28;20005;-42
2023/10/12 11:52:37;;;;;;;;;;;15.20;99.90;;;;;;5117457;28;19924;-42
2023/10/12 11:55:06;;;;;;;;;;;15.20;99.90;;;;;;5116975;28;19924;-41
2023/10/12 11:57:40;;;;;;;;;;;15.20;99.90;;;;;;5115838;28;20001;-41
2023/10/12 12:00:07;;;;;;;;;;;15.10;99.90;;;;;;5116694;28;19923;-41
2023/10/12 12:02:35;;;;;;;;;;;15.10;99.90;;;;;;5115926;28;19923;-41
2023/10/12 12:05:01;;;;;;;;;;;15.10;99.90;;;;;;5116673;28;19924;-41
2023/10/12 12:07:27;;;;;;;;;;;15.10;99.90;;;;;;5116798;28;19931;-41
2023/10/12 12:10:00;;;;;;;;;;;15.00;99.90;;;;;;5116778;28;19923;-41
2023/10/12 12:12:26;;;;;;;;;;;15.00;99.90;;;;;;5116548;28;19928;-41
2023/10/12 12:14:51;;;;;;;;;;;15.00;99.90;;;;;;5116382;28;20043;-41
2023/10/12 12:17:17;;;;;;;;;;;15.00;99.90;;;;;;5116351;28;19924;-42
2023/10/12 12:19:43;;;;;;;;;;;15.00;99.90;;;;;;5116786;28;19923;-42
2023/10/12 12:22:13;;;;;;;;;;;14.90;99.90;;;;;;5116633;28;19977;-42
2023/10/12 12:24:41;;;;;;;;;;;14.90;99.90;;;;;;5115473;28;20026;-42
2023/10/12 12:27:22;;;;;;;;;;;14.90;99.90;;;;;;5116415;27;20390;-42
2023/10/12 12:29:48;;;;;;;;;;;14.90;99.90;;;;;;5117017;28;19924;-42
2023/10/12 12:32:14;;;;;;;;;;;14.90;99.90;;;;;;5116317;28;19985;-41
2023/10/12 12:34:47;;;;;;;;;;;14.90;99.90;;;;;;5116538;28;20023;-41
2023/10/12 12:37:16;;;;;;;;;;;14.90;99.90;;;;;;5115442;28;19971;-42
2023/10/12 12:39:42;;;;;;;;;;;14.90;99.90;;;;;;5116065;28;20026;-42
2023/10/12 12:42:11;;;;;;;;;;;14.90;99.90;;;;;;5115378;28;19985;-41
2023/10/12 12:44:37;;;;;;;;;;;14.90;99.90;;;;;;5116155;28;20297;-44
2023/10/12 12:47:02;;;;;;;;;;;14.90;99.90;;;;;;5116014;27;19924;-41
2023/10/12 12:49:30;;;;;;;;;;;14.90;99.90;;;;;;5115859;28;19963;-42
2023/10/12 12:51:57;;;;;;;;;;;14.90;99.90;;;;;;5115974;28;20378;-41
2023/10/12 12:54:24;;;;;;;;;;;14.90;99.90;;;;;;5114967;28;19930;-41
2023/10/12 12:56:53;;;;;;;;;;;14.90;99.90;;;;;;5115953;28;19990;-42
2023/10/12 12:59:21;;;;;;;;;;;14.90;99.90;;;;;;5115817;28;20386;-42
2023/10/12 13:01:47;;;;;;;;;;;14.90;99.90;;;;;;5115665;28;20378;-42
2023/10/12 13:04:14;;;;;;;;;;;14.90;99.90;;;;;;5115576;28;19927;-42
2023/10/12 13:06:40;;;;;;;;;;;14.90;99.90;;;;;;5115582;28;19930;-42
2023/10/12 13:09:05;;;;;;;;;;;14.90;99.90;;;;;;5115411;28;19927;-41
2023/10/12 13:11:32;;;;;;;;;;;14.90;99.90;;;;;;5115253;28;19930;-42
2023/10/12 13:13:57;;;;;;;;;;;14.90;99.90;;;;;;5115576;28;19981;-42
2023/10/12 13:16:23;;;;;;;;;;;14.90;99.90;;;;;;5114423;28;19967;-42
2023/10/12 13:18:48;;;;;;;;;;;14.90;99.90;;;;;;5115401;28;19931;-41
2023/10/12 13:21:14;;;;;;;;;;;14.90;99.90;;;;;;5115337;28;19923;-43
2023/10/12 13:23:40;;;;;;;;;;;14.90;99.90;;;;;;5115571;28;19924;-42
2023/10/12 13:26:07;;;;;;;;;;;14.90;99.90;;;;;;5115360;28;19931;-41
2023/10/12 13:28:33;;;;;;;;;;;14.90;99.90;;;;;;5115480;28;19992;-41
2023/10/12 13:30:58;;;;;;;;;;;14.90;99.90;;;;;;5115160;28;20437;-42
2023/10/12 13:33:27;;;;;;;;;;;14.90;99.90;;;;;;5114906;28;19924;-41
2023/10/12 13:35:55;;;;;;;;;;;14.90;99.90;;;;;;5115010;28;19928;-41
2023/10/12 13:38:21;;;;;;;;;;;14.90;99.90;;;;;;5115151;28;19924;-41
2023/10/12 13:40:48;;;;;;;;;;;14.90;99.90;;;;;;5115021;28;19930;-42
2023/10/12 13:43:26;;;;;;;;;;;14.90;99.90;;;;;;5115278;28;19924;-42
2023/10/12 13:45:54;;;;;;;;;;;14.90;99.90;;;;;;5115246;28;19977;-42
2023/10/12 13:48:21;;;;;;;;;;;14.90;99.90;;;;;;5114828;28;19928;-41
2023/10/12 13:51:08;;;;;;;;;;;14.90;99.90;;;;;;5114861;28;19980;-41
2023/10/12 13:53:36;;;;;;;;;;;14.90;99.90;;;;;;5115204;28;19924;-41
2023/10/12 13:56:07;;;;;;;;;;;14.90;99.90;;;;;;5114822;28;19931;-41
2023/10/12 13:58:34;;;;;;;;;;;14.80;99.90;;;;;;5114601;28;20018;-41
2023/10/12 14:01:04;;;;;;;;;;;14.90;99.90;;;;;;5114717;28;20426;-41
2023/10/12 14:03:34;;;;;;;;;;;14.80;99.90;;;;;;5114673;28;19923;-42
2023/10/12 14:06:00;;;;;;;;;;;14.80;99.90;;;;;;5114785;28;19924;-42
2023/10/12 14:08:28;;;;;;;;;;;14.80;99.90;;;;;;5114765;28;20375;-45
2023/10/12 14:10:54;;;;;;;;;;;14.80;99.90;;;;;;5114270;28;19924;-42
2023/10/12 14:13:20;;;;;;;;;;;14.80;99.90;;;;;;5114628;28;19931;-41
2023/10/12 14:15:47;;;;;;;;;;;14.80;99.90;;;;;;5114455;28;19924;-42
2023/10/12 14:18:16;;;;;;;;;;;14.80;99.90;;;;;;5114532;28;19928;-41
2023/10/12 14:20:42;;;;;;;;;;;14.80;99.90;;;;;;5114590;28;20077;-42
2023/10/12 14:23:08;;;;;;;;;;;14.80;99.90;;;;;;5114499;28;19924;-41
2023/10/12 14:25:35;;;;;;;;;;;14.80;99.90;;;;;;5114424;28;19924;-42
2023/10/12 14:28:06;;;;;;;;;;;14.80;99.90;;;;;;5113375;28;20367;-42
2023/10/12 14:30:36;;;;;;;;;;;14.90;99.90;;;;;;5114480;28;19924;-42
2023/10/12 14:33:03;;;;;;;;;;;14.80;99.90;;;;;;5114476;28;19947;-42
2023/10/12 14:35:38;;;;;;;;;;;14.90;99.90;;;;;;5114487;28;19929;-42
2023/10/12 14:38:08;;;;;;;;;;;14.80;99.90;;;;;;5114319;28;19923;-42
2023/10/12 14:40:34;;;;;;;;;;;14.80;99.90;;;;;;5114299;28;19931;-42
2023/10/12 14:43:06;;;;;;;;;;;14.80;99.90;;;;;;5114729;28;19970;-42
2023/10/12 14:45:36;;;;;;;;;;;14.80;99.90;;;;;;5114527;28;20312;-41
2023/10/12 14:48:09;;;;;;;;;;;14.80;99.90;;;;;;5115436;28;20014;-41
2023/10/12 14:50:38;;;;;;;;;;;14.80;99.90;;;;;;5118484;28;19931;-41
2023/10/12 14:53:09;;;;;;;;;;;14.80;99.90;;;;;;5118166;28;20001;-41
2023/10/12 14:55:35;;;;;;;;;;;14.80;99.90;;;;;;5118334;28;19971;-41
2023/10/12 14:58:02;;;;;;;;;;;14.70;99.90;;;;;;5118297;28;19924;-41
2023/10/12 15:00:28;;;;;;;;;;;14.80;99.90;;;;;;5118194;28;19924;-41
2023/10/12 15:02:57;;;;;;;;;;;14.70;99.90;;;;;;5118121;28;19937;-41
2023/10/12 15:05:27;;;;;;;;;;;14.60;99.90;;;;;;5116583;28;19977;-41
2023/10/12 15:07:56;;;;;;;;;;;14.70;99.90;;;;;;5118065;28;19946;-43
2023/10/12 15:10:22;;;;;;;;;;;14.60;99.90;;;;;;5118094;28;19931;-41
2023/10/12 15:12:51;;;;;;;;;;;14.60;99.90;;;;;;5117784;28;20432;-42
2023/10/12 15:15:20;;;;;;;;;;;14.60;99.90;;;;;;5117876;28;20015;-42
2023/10/12 15:17:46;;;;;;;;;;;14.50;99.90;;;;;;5117940;28;19985;-41
2023/10/12 15:20:18;;;;;;;;;;;14.50;99.90;;;;;;5116811;28;19967;-42
2023/10/12 15:22:44;;;;;;;;;;;14.50;99.90;;;;;;5117814;28;20014;-41
2023/10/12 15:25:11;;;;;;;;;;;14.40;99.90;;;;;;5117737;28;19923;-41
2023/10/12 15:27:37;;;;;;;;;;;14.40;99.90;;;;;;5118089;27;19923;-41
2023/10/12 15:30:04;;;;;;;;;;;14.40;99.90;;;;;;5117567;28;20298;-41
2023/10/12 15:32:30;;;;;;;;;;;14.30;99.90;;;;;;5117462;28;19985;-42
2023/10/12 15:34:57;;;;;;;;;;;14.30;99.90;;;;;;5117285;28;20374;-41
2023/10/12 15:37:24;;;;;;;;;;;14.30;99.90;;;;;;5117552;27;19931;-42
2023/10/12 15:39:53;;;;;;;;;;;14.30;99.90;;;;;;5117454;28;20382;-42
2023/10/12 15:42:19;;;;;;;;;;;14.30;99.90;;;;;;5117389;28;20397;-41
2023/10/12 15:44:44;;;;;;;;;;;14.20;99.90;;;;;;5117342;28;19928;-42
2023/10/12 15:47:10;;;;;;;;;;;14.20;99.90;;;;;;5117343;28;19924;-41
2023/10/12 15:49:36;;;;;;;;;;;14.20;99.90;;;;;;5117081;28;19924;-41
2023/10/12 15:52:01;;;;;;;;;;;14.20;99.90;;;;;;5117228;28;20010;-42
2023/10/12 15:54:27;;;;;;;;;;;14.10;99.90;;;;;;5117143;28;19924;-41
2023/10/12 15:56:56;;;;;;;;;;;14.10;99.90;;;;;;5116193;28;19974;-41
2023/10/12 15:59:23;;;;;;;;;;;14.10;99.90;;;;;;5115777;28;19923;-41
2023/10/12 16:01:49;;;;;;;;;;;14.00;99.90;;;;;;5116774;28;19924;-42
2023/10/12 16:04:14;;;;;;;;;;;14.00;99.90;;;;;;5115742;28;19930;-42
2023/10/12 16:06:40;;;;;;;;;;;14.00;99.90;;;;;;5116933;28;19924;-41
2023/10/12 16:09:09;;;;;;;;;;;14.00;99.90;;;;;;5116797;28;19924;-42
2023/10/12 16:11:41;;;;;;;;;;;13.90;99.90;;;;;;5116697;28;19924;-42
2023/10/12 16:14:06;;;;;;;;;;;13.90;99.90;;;;;;5116766;28;20413;-41
2023/10/12 16:16:32;;;;;;;;;;;13.90;99.90;;;;;;5115427;28;19970;-41
2023/10/12 16:18:58;;;;;;;;;;;13.90;99.90;;;;;;5116526;28;19930;-41
2023/10/12 16:21:23;;;;;;;;;;;13.80;99.90;;;;;;5098678;28;20383;-41
2023/10/12 16:23:49;;;;;;;;;;;13.80;99.90;;;;;;5116531;28;19931;-40
2023/10/12 16:26:15;;;;;;;;;;;13.80;99.90;;;;;;5116459;28;20018;-40